sensor_id;sensor_type;location;lat;lon;timestamp;temperature;humidity
50969;DHT22;36982;51.474;7.228;2023-09-18T00:01:05;20.00;92.10
50969;DHT22;36982;51.474;7.228;2023-09-18T00:03:32;20.00;91.50
50969;DHT22;36982;51.474;7.228;2023-09-18T00:05:58;20.10;91.90
50969;DHT22;36982;51.474;7.228;2023-09-18T00:08:23;19.90;91.50
50969;DHT22;36982;51.474;7.228;2023-09-18T00:10:51;19.90;92.00
50969;DHT22;36982;51.474;7.228;2023-09-18T00:13:17;19.90;91.50
50969;DHT22;36982;51.474;7.228;2023-09-18T00:15:43;19.80;92.20
50969;DHT22;36982;51.474;7.228;2023-09-18T00:18:13;19.80;92.60
50969;DHT22;36982;51.474;7.228;2023-09-18T00:20:38;19.80;92.80
50969;DHT22;36982;51.474;7.228;2023-09-18T00:23:04;19.80;92.90
50969;DHT22;36982;51.474;7.228;2023-09-18T00:25:30;19.90;92.90
50969;DHT22;36982;51.474;7.228;2023-09-18T00:27:56;19.70;93.20
50969;DHT22;36982;51.474;7.228;2023-09-18T00:30:22;19.70;93.40
50969;DHT22;36982;51.474;7.228;2023-09-18T00:32:48;19.70;92.40
50969;DHT22;36982;51.474;7.228;2023-09-18T00:35:15;19.70;91.20
50969;DHT22;36982;51.474;7.228;2023-09-18T00:37:41;19.60;92.80
50969;DHT22;36982;51.474;7.228;2023-09-18T00:40:08;19.60;93.30
50969;DHT22;36982;51.474;7.228;2023-09-18T00:42:34;19.50;94.40
50969;DHT22;36982;51.474;7.228;2023-09-18T00:45:00;19.50;95.00
50969;DHT22;36982;51.474;7.228;2023-09-18T00:47:25;19.50;94.30
50969;DHT22;36982;51.474;7.228;2023-09-18T00:49:52;19.50;93.70
50969;DHT22;36982;51.474;7.228;2023-09-18T00:52:19;19.30;93.80
50969;DHT22;36982;51.474;7.228;2023-09-18T00:54:46;19.60;94.00
50969;DHT22;36982;51.474;7.228;2023-09-18T00:57:12;19.50;94.00
50969;DHT22;36982;51.474;7.228;2023-09-18T00:59:38;19.40;93.30
50969;DHT22;36982;51.474;7.228;2023-09-18T01:02:04;19.60;93.80
50969;DHT22;36982;51.474;7.228;2023-09-18T01:04:30;19.60;93.40
50969;DHT22;36982;51.474;7.228;2023-09-18T01:07:00;19.60;92.20
50969;DHT22;36982;51.474;7.228;2023-09-18T01:09:33;19.60;91.70
50969;DHT22;36982;51.474;7.228;2023-09-18T01:12:11;19.60;91.30
50969;DHT22;36982;51.474;7.228;2023-09-18T01:17:17;19.50;91.70
50969;DHT22;36982;51.474;7.228;2023-09-18T01:19:45;19.60;91.80
50969;DHT22;36982;51.474;7.228;2023-09-18T01:22:15;19.60;90.60
50969;DHT22;36982;51.474;7.228;2023-09-18T01:24:43;19.60;89.80
50969;DHT22;36982;51.474;7.228;2023-09-18T01:27:11;19.50;90.00
50969;DHT22;36982;51.474;7.228;2023-09-18T01:29:38;19.50;90.50
50969;DHT22;36982;51.474;7.228;2023-09-18T01:32:04;19.50;92.20
50969;DHT22;36982;51.474;7.228;2023-09-18T01:34:33;19.50;91.90
50969;DHT22;36982;51.474;7.228;2023-09-18T01:37:05;19.50;92.20
50969;DHT22;36982;51.474;7.228;2023-09-18T01:39:32;19.50;91.70
50969;DHT22;36982;51.474;7.228;2023-09-18T01:42:01;19.50;90.80
50969;DHT22;36982;51.474;7.228;2023-09-18T01:44:28;19.50;92.10
50969;DHT22;36982;51.474;7.228;2023-09-18T01:46:56;19.30;92.20
50969;DHT22;36982;51.474;7.228;2023-09-18T01:49:28;19.40;93.50
50969;DHT22;36982;51.474;7.228;2023-09-18T01:51:54;19.40;93.90
50969;DHT22;36982;51.474;7.228;2023-09-18T01:54:20;19.50;93.00
50969;DHT22;36982;51.474;7.228;2023-09-18T01:56:45;19.40;92.50
50969;DHT22;36982;51.474;7.228;2023-09-18T01:59:11;19.30;92.20
50969;DHT22;36982;51.474;7.228;2023-09-18T02:01:36;19.30;92.60
50969;DHT22;36982;51.474;7.228;2023-09-18T02:04:04;19.40;93.20
50969;DHT22;36982;51.474;7.228;2023-09-18T02:06:29;19.30;93.00
50969;DHT22;36982;51.474;7.228;2023-09-18T02:08:55;19.40;92.90
50969;DHT22;36982;51.474;7.228;2023-09-18T02:11:21;19.30;93.40
50969;DHT22;36982;51.474;7.228;2023-09-18T02:13:46;19.30;93.40
50969;DHT22;36982;51.474;7.228;2023-09-18T02:16:12;19.30;93.00
50969;DHT22;36982;51.474;7.228;2023-09-18T02:18:38;19.50;92.80
50969;DHT22;36982;51.474;7.228;2023-09-18T02:21:03;19.30;92.50
50969;DHT22;36982;51.474;7.228;2023-09-18T02:23:29;19.40;91.70
50969;DHT22;36982;51.474;7.228;2023-09-18T02:25:58;19.40;91.50
50969;DHT22;36982;51.474;7.228;2023-09-18T02:28:24;19.30;92.10
50969;DHT22;36982;51.474;7.228;2023-09-18T02:30:49;19.40;91.40
50969;DHT22;36982;51.474;7.228;2023-09-18T02:33:15;19.40;87.90
50969;DHT22;36982;51.474;7.228;2023-09-18T02:35:41;19.40;86.20
50969;DHT22;36982;51.474;7.228;2023-09-18T02:38:08;19.40;85.30
50969;DHT22;36982;51.474;7.228;2023-09-18T02:40:34;19.40;85.20
50969;DHT22;36982;51.474;7.228;2023-09-18T02:43:00;19.40;84.00
50969;DHT22;36982;51.474;7.228;2023-09-18T02:45:27;19.40;85.60
50969;DHT22;36982;51.474;7.228;2023-09-18T02:47:53;19.40;86.50
50969;DHT22;36982;51.474;7.228;2023-09-18T02:50:18;19.50;80.60
50969;DHT22;36982;51.474;7.228;2023-09-18T02:52:44;19.50;76.10
50969;DHT22;36982;51.474;7.228;2023-09-18T02:55:10;19.50;75.60
50969;DHT22;36982;51.474;7.228;2023-09-18T02:57:35;19.60;72.90
50969;DHT22;36982;51.474;7.228;2023-09-18T03:00:01;19.70;71.10
50969;DHT22;36982;51.474;7.228;2023-09-18T03:02:28;19.80;66.60
50969;DHT22;36982;51.474;7.228;2023-09-18T03:04:54;19.70;69.70
50969;DHT22;36982;51.474;7.228;2023-09-18T03:07:19;19.70;67.20
50969;DHT22;36982;51.474;7.228;2023-09-18T03:09:45;19.90;64.80
50969;DHT22;36982;51.474;7.228;2023-09-18T03:12:10;19.80;61.90
50969;DHT22;36982;51.474;7.228;2023-09-18T03:14:36;19.80;60.50
50969;DHT22;36982;51.474;7.228;2023-09-18T03:17:02;19.80;59.50
50969;DHT22;36982;51.474;7.228;2023-09-18T03:19:27;19.90;55.00
50969;DHT22;36982;51.474;7.228;2023-09-18T03:21:53;19.90;48.00
50969;DHT22;36982;51.474;7.228;2023-09-18T03:24:18;20.00;38.60
50969;DHT22;36982;51.474;7.228;2023-09-18T03:26:44;20.20;26.90
50969;DHT22;36982;51.474;7.228;2023-09-18T03:29:10;20.20;23.70
50969;DHT22;36982;51.474;7.228;2023-09-18T03:31:35;20.30;9.90
50969;DHT22;36982;51.474;7.228;2023-09-18T03:34:01;20.30;1.00
50969;DHT22;36982;51.474;7.228;2023-09-18T03:36:27;20.50;1.00
50969;DHT22;36982;51.474;7.228;2023-09-18T03:38:52;20.60;1.00
50969;DHT22;36982;51.474;7.228;2023-09-18T03:41:18;20.70;1.00
50969;DHT22;36982;51.474;7.228;2023-09-18T03:43:43;20.80;1.00
50969;DHT22;36982;51.474;7.228;2023-09-18T03:46:09;20.80;1.00
50969;DHT22;36982;51.474;7.228;2023-09-18T03:48:34;20.90;1.00
50969;DHT22;36982;51.474;7.228;2023-09-18T03:51:06;21.00;1.00
50969;DHT22;36982;51.474;7.228;2023-09-18T03:53:33;21.00;1.00
50969;DHT22;36982;51.474;7.228;2023-09-18T03:55:59;21.10;1.00
50969;DHT22;36982;51.474;7.228;2023-09-18T03:58:25;21.10;1.00
50969;DHT22;36982;51.474;7.228;2023-09-18T04:00:51;21.10;1.00
50969;DHT22;36982;51.474;7.228;2023-09-18T04:03:17;21.10;1.00
50969;DHT22;36982;51.474;7.228;2023-09-18T04:05:42;21.10;1.00
50969;DHT22;36982;51.474;7.228;2023-09-18T04:08:08;21.20;1.00
50969;DHT22;36982;51.474;7.228;2023-09-18T04:10:34;21.20;1.00
50969;DHT22;36982;51.474;7.228;2023-09-18T04:13:00;21.20;1.00
50969;DHT22;36982;51.474;7.228;2023-09-18T04:15:26;21.30;1.00
50969;DHT22;36982;51.474;7.228;2023-09-18T04:17:53;21.20;1.00
50969;DHT22;36982;51.474;7.228;2023-09-18T04:20:18;21.20;1.00
50969;DHT22;36982;51.474;7.228;2023-09-18T04:22:46;21.10;1.00
50969;DHT22;36982;51.474;7.228;2023-09-18T04:25:15;21.10;1.00
50969;DHT22;36982;51.474;7.228;2023-09-18T04:27:42;21.10;1.00
50969;DHT22;36982;51.474;7.228;2023-09-18T04:30:08;21.10;1.00
50969;DHT22;36982;51.474;7.228;2023-09-18T04:32:37;21.10;1.00
50969;DHT22;36982;51.474;7.228;2023-09-18T04:35:03;21.10;1.00
50969;DHT22;36982;51.474;7.228;2023-09-18T04:37:30;21.00;1.00
50969;DHT22;36982;51.474;7.228;2023-09-18T04:39:57;20.90;1.00
50969;DHT22;36982;51.474;7.228;2023-09-18T04:42:23;20.90;1.00
50969;DHT22;36982;51.474;7.228;2023-09-18T04:44:48;20.90;1.00
50969;DHT22;36982;51.474;7.228;2023-09-18T04:47:14;21.00;1.00
50969;DHT22;36982;51.474;7.228;2023-09-18T04:49:40;21.10;1.00
50969;DHT22;36982;51.474;7.228;2023-09-18T04:52:06;21.00;1.00
50969;DHT22;36982;51.474;7.228;2023-09-18T04:54:31;21.10;1.00
50969;DHT22;36982;51.474;7.228;2023-09-18T04:56:57;21.00;1.00
50969;DHT22;36982;51.474;7.228;2023-09-18T04:59:22;20.90;1.00
50969;DHT22;36982;51.474;7.228;2023-09-18T05:01:48;20.90;1.00
50969;DHT22;36982;51.474;7.228;2023-09-18T05:04:13;20.90;1.00
50969;DHT22;36982;51.474;7.228;2023-09-18T05:06:39;20.90;1.00
50969;DHT22;36982;51.474;7.228;2023-09-18T05:09:05;20.80;5.60
50969;DHT22;36982;51.474;7.228;2023-09-18T05:11:31;20.70;5.20
50969;DHT22;36982;51.474;7.228;2023-09-18T05:13:57;20.70;5.90
50969;DHT22;36982;51.474;7.228;2023-09-18T05:16:22;20.60;11.60
50969;DHT22;36982;51.474;7.228;2023-09-18T05:18:48;20.60;15.40
50969;DHT22;36982;51.474;7.228;2023-09-18T05:21:13;20.60;16.30
50969;DHT22;36982;51.474;7.228;2023-09-18T05:23:39;20.60;13.30
50969;DHT22;36982;51.474;7.228;2023-09-18T05:26:04;20.60;16.20
50969;DHT22;36982;51.474;7.228;2023-09-18T05:28:30;20.70;14.50
50969;DHT22;36982;51.474;7.228;2023-09-18T05:30:56;20.60;11.60
50969;DHT22;36982;51.474;7.228;2023-09-18T05:33:21;20.60;19.00
50969;DHT22;36982;51.474;7.228;2023-09-18T05:35:47;20.50;20.40
50969;DHT22;36982;51.474;7.228;2023-09-18T05:38:13;20.60;17.50
50969;DHT22;36982;51.474;7.228;2023-09-18T05:40:40;20.60;15.80
50969;DHT22;36982;51.474;7.228;2023-09-18T05:43:05;20.60;19.60
50969;DHT22;36982;51.474;7.228;2023-09-18T05:45:31;20.60;19.00
50969;DHT22;36982;51.474;7.228;2023-09-18T05:47:58;20.60;22.40
50969;DHT22;36982;51.474;7.228;2023-09-18T05:50:33;20.50;28.50
50969;DHT22;36982;51.474;7.228;2023-09-18T05:53:00;20.50;30.60
50969;DHT22;36982;51.474;7.228;2023-09-18T05:55:32;20.50;30.60
50969;DHT22;36982;51.474;7.228;2023-09-18T05:57:58;20.50;27.40
50969;DHT22;36982;51.474;7.228;2023-09-18T06:00:23;20.40;34.10
50969;DHT22;36982;51.474;7.228;2023-09-18T06:02:50;20.20;39.00
50969;DHT22;36982;51.474;7.228;2023-09-18T06:05:16;20.30;35.60
50969;DHT22;36982;51.474;7.228;2023-09-18T06:07:42;20.40;32.20
50969;DHT22;36982;51.474;7.228;2023-09-18T06:10:09;20.50;29.10
50969;DHT22;36982;51.474;7.228;2023-09-18T06:12:34;20.40;28.40
50969;DHT22;36982;51.474;7.228;2023-09-18T06:15:00;20.50;27.30
50969;DHT22;36982;51.474;7.228;2023-09-18T06:17:25;20.50;24.40
50969;DHT22;36982;51.474;7.228;2023-09-18T06:19:51;20.50;19.10
50969;DHT22;36982;51.474;7.228;2023-09-18T06:22:17;20.60;21.20
50969;DHT22;36982;51.474;7.228;2023-09-18T06:24:43;20.60;18.10
50969;DHT22;36982;51.474;7.228;2023-09-18T06:27:08;20.70;15.90
50969;DHT22;36982;51.474;7.228;2023-09-18T06:29:34;20.70;17.80
50969;DHT22;36982;51.474;7.228;2023-09-18T06:32:01;20.70;8.70
50969;DHT22;36982;51.474;7.228;2023-09-18T06:34:26;20.80;4.50
50969;DHT22;36982;51.474;7.228;2023-09-18T06:36:53;20.80;9.30
50969;DHT22;36982;51.474;7.228;2023-09-18T06:39:19;20.80;8.90
50969;DHT22;36982;51.474;7.228;2023-09-18T06:41:45;20.80;6.50
50969;DHT22;36982;51.474;7.228;2023-09-18T06:44:11;20.90;1.00
50969;DHT22;36982;51.474;7.228;2023-09-18T06:46:36;20.90;3.30
50969;DHT22;36982;51.474;7.228;2023-09-18T06:49:02;20.90;3.20
50969;DHT22;36982;51.474;7.228;2023-09-18T06:51:29;20.90;2.00
50969;DHT22;36982;51.474;7.228;2023-09-18T06:53:54;20.90;1.20
50969;DHT22;36982;51.474;7.228;2023-09-18T06:56:25;20.90;1.00
50969;DHT22;36982;51.474;7.228;2023-09-18T06:58:51;20.90;1.00
50969;DHT22;36982;51.474;7.228;2023-09-18T07:01:18;20.90;1.00
50969;DHT22;36982;51.474;7.228;2023-09-18T07:03:47;20.90;1.00
50969;DHT22;36982;51.474;7.228;2023-09-18T07:06:14;21.00;1.00
50969;DHT22;36982;51.474;7.228;2023-09-18T07:08:46;21.00;1.00
50969;DHT22;36982;51.474;7.228;2023-09-18T07:11:12;21.00;1.00
50969;DHT22;36982;51.474;7.228;2023-09-18T07:13:38;21.00;1.00
50969;DHT22;36982;51.474;7.228;2023-09-18T07:16:04;21.10;1.00
50969;DHT22;36982;51.474;7.228;2023-09-18T07:18:29;21.10;1.00
50969;DHT22;36982;51.474;7.228;2023-09-18T07:20:55;21.10;1.00
50969;DHT22;36982;51.474;7.228;2023-09-18T07:23:20;21.20;1.00
50969;DHT22;36982;51.474;7.228;2023-09-18T07:25:49;21.30;1.00
50969;DHT22;36982;51.474;7.228;2023-09-18T07:28:15;21.30;1.00
50969;DHT22;36982;51.474;7.228;2023-09-18T07:30:46;21.40;1.00
50969;DHT22;36982;51.474;7.228;2023-09-18T07:33:12;21.40;1.00
50969;DHT22;36982;51.474;7.228;2023-09-18T07:35:38;21.50;1.00
50969;DHT22;36982;51.474;7.228;2023-09-18T07:38:04;21.60;1.00
50969;DHT22;36982;51.474;7.228;2023-09-18T07:40:30;21.70;1.00
50969;DHT22;36982;51.474;7.228;2023-09-18T07:42:55;21.80;1.00
50969;DHT22;36982;51.474;7.228;2023-09-18T07:45:22;22.00;1.00
50969;DHT22;36982;51.474;7.228;2023-09-18T07:47:48;22.10;1.00
50969;DHT22;36982;51.474;7.228;2023-09-18T07:50:13;22.30;1.00
50969;DHT22;36982;51.474;7.228;2023-09-18T07:52:39;22.40;1.00
50969;DHT22;36982;51.474;7.228;2023-09-18T07:55:05;22.40;1.00
50969;DHT22;36982;51.474;7.228;2023-09-18T07:57:31;22.50;1.00
50969;DHT22;36982;51.474;7.228;2023-09-18T07:59:59;22.50;1.00
50969;DHT22;36982;51.474;7.228;2023-09-18T08:02:32;22.40;1.00
50969;DHT22;36982;51.474;7.228;2023-09-18T08:04:57;22.30;1.00
50969;DHT22;36982;51.474;7.228;2023-09-18T08:07:23;22.30;1.00
50969;DHT22;36982;51.474;7.228;2023-09-18T08:09:48;22.30;1.00
50969;DHT22;36982;51.474;7.228;2023-09-18T08:12:14;22.10;1.00
50969;DHT22;36982;51.474;7.228;2023-09-18T08:14:40;22.00;1.00
50969;DHT22;36982;51.474;7.228;2023-09-18T08:17:05;22.00;1.00
50969;DHT22;36982;51.474;7.228;2023-09-18T08:19:33;22.00;1.00
50969;DHT22;36982;51.474;7.228;2023-09-18T08:21:59;22.00;1.00
50969;DHT22;36982;51.474;7.228;2023-09-18T08:24:29;22.10;1.00
50969;DHT22;36982;51.474;7.228;2023-09-18T08:26:55;22.00;1.00
50969;DHT22;36982;51.474;7.228;2023-09-18T08:29:21;22.00;1.00
50969;DHT22;36982;51.474;7.228;2023-09-18T08:31:48;21.90;1.00
50969;DHT22;36982;51.474;7.228;2023-09-18T08:34:14;21.80;1.00
50969;DHT22;36982;51.474;7.228;2023-09-18T08:36:40;21.80;1.00
50969;DHT22;36982;51.474;7.228;2023-09-18T08:39:05;21.70;1.00
50969;DHT22;36982;51.474;7.228;2023-09-18T08:41:32;21.70;1.00
50969;DHT22;36982;51.474;7.228;2023-09-18T08:44:02;21.60;1.00
50969;DHT22;36982;51.474;7.228;2023-09-18T08:46:30;21.60;1.00
50969;DHT22;36982;51.474;7.228;2023-09-18T08:48:57;21.60;1.00
50969;DHT22;36982;51.474;7.228;2023-09-18T08:51:22;21.60;1.00
50969;DHT22;36982;51.474;7.228;2023-09-18T08:53:49;21.60;1.00
50969;DHT22;36982;51.474;7.228;2023-09-18T08:56:17;21.80;1.00
50969;DHT22;36982;51.474;7.228;2023-09-18T08:58:44;21.90;1.00
50969;DHT22;36982;51.474;7.228;2023-09-18T09:01:10;22.10;1.00
50969;DHT22;36982;51.474;7.228;2023-09-18T09:03:38;22.20;1.00
50969;DHT22;36982;51.474;7.228;2023-09-18T09:06:07;22.30;1.00
50969;DHT22;36982;51.474;7.228;2023-09-18T09:08:34;22.20;1.00
50969;DHT22;36982;51.474;7.228;2023-09-18T09:10:59;22.30;1.00
50969;DHT22;36982;51.474;7.228;2023-09-18T09:13:25;22.20;1.00
50969;DHT22;36982;51.474;7.228;2023-09-18T09:15:53;22.30;1.00
50969;DHT22;36982;51.474;7.228;2023-09-18T09:18:22;22.40;1.00
50969;DHT22;36982;51.474;7.228;2023-09-18T09:20:59;22.50;1.00
50969;DHT22;36982;51.474;7.228;2023-09-18T09:23:29;22.40;1.00
50969;DHT22;36982;51.474;7.228;2023-09-18T09:26:16;22.50;1.00
50969;DHT22;36982;51.474;7.228;2023-09-18T09:28:43;22.60;1.00
50969;DHT22;36982;51.474;7.228;2023-09-18T09:31:09;22.70;1.00
50969;DHT22;36982;51.474;7.228;2023-09-18T09:33:36;22.90;99.90
50969;DHT22;36982;51.474;7.228;2023-09-18T09:36:05;22.80;99.90
50969;DHT22;36982;51.474;7.228;2023-09-18T09:38:33;22.80;99.90
50969;DHT22;36982;51.474;7.228;2023-09-18T09:41:02;22.70;99.90
50969;DHT22;36982;51.474;7.228;2023-09-18T09:43:31;22.60;99.90
50969;DHT22;36982;51.474;7.228;2023-09-18T09:46:03;22.70;99.90
50969;DHT22;36982;51.474;7.228;2023-09-18T09:48:29;22.70;99.90
50969;DHT22;36982;51.474;7.228;2023-09-18T09:50:59;22.80;99.90
50969;DHT22;36982;51.474;7.228;2023-09-18T09:53:45;22.80;99.90
50969;DHT22;36982;51.474;7.228;2023-09-18T09:56:13;22.90;99.90
50969;DHT22;36982;51.474;7.228;2023-09-18T09:58:39;22.90;99.90
50969;DHT22;36982;51.474;7.228;2023-09-18T10:01:11;23.00;99.90
50969;DHT22;36982;51.474;7.228;2023-09-18T10:03:44;23.30;99.90
50969;DHT22;36982;51.474;7.228;2023-09-18T10:06:10;23.40;99.90
50969;DHT22;36982;51.474;7.228;2023-09-18T10:08:39;23.50;99.90
50969;DHT22;36982;51.474;7.228;2023-09-18T10:11:07;23.50;99.90
50969;DHT22;36982;51.474;7.228;2023-09-18T10:13:47;23.50;99.90
50969;DHT22;36982;51.474;7.228;2023-09-18T10:16:17;23.50;99.90
50969;DHT22;36982;51.474;7.228;2023-09-18T10:18:56;23.50;99.90
50969;DHT22;36982;51.474;7.228;2023-09-18T10:24:26;23.50;99.90
50969;DHT22;36982;51.474;7.228;2023-09-18T10:26:58;23.50;99.90
50969;DHT22;36982;51.474;7.228;2023-09-18T10:29:25;23.50;99.90
50969;DHT22;36982;51.474;7.228;2023-09-18T10:31:52;23.10;99.90
50969;DHT22;36982;51.474;7.228;2023-09-18T10:34:20;23.10;99.90
50969;DHT22;36982;51.474;7.228;2023-09-18T10:36:51;23.20;99.90
50969;DHT22;36982;51.474;7.228;2023-09-18T10:39:17;23.30;99.90
50969;DHT22;36982;51.474;7.228;2023-09-18T10:41:49;23.30;99.90
50969;DHT22;36982;51.474;7.228;2023-09-18T10:44:16;23.20;99.90
50969;DHT22;36982;51.474;7.228;2023-09-18T10:46:44;23.30;99.90
50969;DHT22;36982;51.474;7.228;2023-09-18T10:49:10;23.20;99.90
50969;DHT22;36982;51.474;7.228;2023-09-18T10:51:37;23.20;99.90
50969;DHT22;36982;51.474;7.228;2023-09-18T10:54:08;23.20;99.90
50969;DHT22;36982;51.474;7.228;2023-09-18T10:56:34;23.20;99.90
50969;DHT22;36982;51.474;7.228;2023-09-18T10:59:01;23.20;99.90
50969;DHT22;36982;51.474;7.228;2023-09-18T11:01:29;23.20;99.90
50969;DHT22;36982;51.474;7.228;2023-09-18T11:04:05;23.20;99.90
50969;DHT22;36982;51.474;7.228;2023-09-18T11:09:24;23.10;99.90
50969;DHT22;36982;51.474;7.228;2023-09-18T11:14:44;23.10;99.90
50969;DHT22;36982;51.474;7.228;2023-09-18T11:17:34;23.20;99.90
50969;DHT22;36982;51.474;7.228;2023-09-18T11:22:59;23.20;99.90
50969;DHT22;36982;51.474;7.228;2023-09-18T11:25:40;23.20;99.90
50969;DHT22;36982;51.474;7.228;2023-09-18T11:28:08;23.20;99.90
50969;DHT22;36982;51.474;7.228;2023-09-18T11:30:38;23.20;99.90
50969;DHT22;36982;51.474;7.228;2023-09-18T11:33:13;23.30;99.90
50969;DHT22;36982;51.474;7.228;2023-09-18T11:35:39;23.40;99.90
50969;DHT22;36982;51.474;7.228;2023-09-18T11:38:16;23.50;99.90
50969;DHT22;36982;51.474;7.228;2023-09-18T11:40:42;23.60;99.90
50969;DHT22;36982;51.474;7.228;2023-09-18T11:43:27;23.80;99.90
50969;DHT22;36982;51.474;7.228;2023-09-18T11:45:58;23.90;99.90
50969;DHT22;36982;51.474;7.228;2023-09-18T11:48:26;23.90;93.00
50969;DHT22;36982;51.474;7.228;2023-09-18T11:50:58;24.20;87.00
50969;DHT22;36982;51.474;7.228;2023-09-18T11:53:27;24.10;74.40
50969;DHT22;36982;51.474;7.228;2023-09-18T11:55:53;24.10;50.70
50969;DHT22;36982;51.474;7.228;2023-09-18T11:58:19;24.20;60.20
50969;DHT22;36982;51.474;7.228;2023-09-18T12:00:49;24.10;88.90
50969;DHT22;36982;51.474;7.228;2023-09-18T12:03:20;24.30;32.70
50969;DHT22;36982;51.474;7.228;2023-09-18T12:06:02;24.30;4.00
50969;DHT22;36982;51.474;7.228;2023-09-18T12:08:31;24.30;4.20
50969;DHT22;36982;51.474;7.228;2023-09-18T12:10:58;24.20;1.00
50969;DHT22;36982;51.474;7.228;2023-09-18T12:13:27;24.20;1.00
50969;DHT22;36982;51.474;7.228;2023-09-18T12:16:03;24.10;1.00
50969;DHT22;36982;51.474;7.228;2023-09-18T12:18:33;23.90;1.00
50969;DHT22;36982;51.474;7.228;2023-09-18T12:21:06;23.90;1.00
50969;DHT22;36982;51.474;7.228;2023-09-18T12:23:39;23.80;1.00
50969;DHT22;36982;51.474;7.228;2023-09-18T12:26:05;23.80;1.00
50969;DHT22;36982;51.474;7.228;2023-09-18T12:28:34;23.70;1.00
50969;DHT22;36982;51.474;7.228;2023-09-18T12:31:00;23.70;1.00
50969;DHT22;36982;51.474;7.228;2023-09-18T12:33:34;23.80;1.00
50969;DHT22;36982;51.474;7.228;2023-09-18T12:36:00;23.90;1.00
50969;DHT22;36982;51.474;7.228;2023-09-18T12:38:26;23.90;1.00
50969;DHT22;36982;51.474;7.228;2023-09-18T12:40:55;23.90;99.90
50969;DHT22;36982;51.474;7.228;2023-09-18T12:43:22;23.90;99.90
50969;DHT22;36982;51.474;7.228;2023-09-18T12:45:49;23.90;99.90
50969;DHT22;36982;51.474;7.228;2023-09-18T12:48:15;24.00;99.90
50969;DHT22;36982;51.474;7.228;2023-09-18T12:50:41;23.90;99.90
50969;DHT22;36982;51.474;7.228;2023-09-18T12:53:14;23.90;99.90
50969;DHT22;36982;51.474;7.228;2023-09-18T12:55:41;23.90;99.90
50969;DHT22;36982;51.474;7.228;2023-09-18T12:58:12;24.00;99.90
50969;DHT22;36982;51.474;7.228;2023-09-18T13:00:47;24.10;99.90
50969;DHT22;36982;51.474;7.228;2023-09-18T13:03:15;24.00;99.90
50969;DHT22;36982;51.474;7.228;2023-09-18T13:05:40;23.90;99.90
50969;DHT22;36982;51.474;7.228;2023-09-18T13:08:06;23.80;99.90
50969;DHT22;36982;51.474;7.228;2023-09-18T13:10:47;23.70;99.90
50969;DHT22;36982;51.474;7.228;2023-09-18T13:13:19;23.70;99.90
50969;DHT22;36982;51.474;7.228;2023-09-18T13:15:46;23.80;1.00
50969;DHT22;36982;51.474;7.228;2023-09-18T13:18:14;23.80;99.90
50969;DHT22;36982;51.474;7.228;2023-09-18T13:20:40;23.80;99.90
50969;DHT22;36982;51.474;7.228;2023-09-18T13:23:06;23.80;99.90
50969;DHT22;36982;51.474;7.228;2023-09-18T13:25:39;23.90;99.90
50969;DHT22;36982;51.474;7.228;2023-09-18T13:28:09;23.90;1.00
50969;DHT22;36982;51.474;7.228;2023-09-18T13:30:39;24.10;27.90
50969;DHT22;36982;51.474;7.228;2023-09-18T13:33:08;24.20;99.90
50969;DHT22;36982;51.474;7.228;2023-09-18T13:35:35;24.10;1.00
50969;DHT22;36982;51.474;7.228;2023-09-18T13:38:01;24.10;1.00
50969;DHT22;36982;51.474;7.228;2023-09-18T13:40:29;24.10;99.90
50969;DHT22;36982;51.474;7.228;2023-09-18T13:42:55;24.10;1.00
50969;DHT22;36982;51.474;7.228;2023-09-18T13:45:20;24.10;1.00
50969;DHT22;36982;51.474;7.228;2023-09-18T13:47:46;24.30;99.90
50969;DHT22;36982;51.474;7.228;2023-09-18T13:50:11;24.30;99.90
50969;DHT22;36982;51.474;7.228;2023-09-18T13:52:38;24.30;1.00
50969;DHT22;36982;51.474;7.228;2023-09-18T13:55:04;24.30;1.00
50969;DHT22;36982;51.474;7.228;2023-09-18T13:57:34;24.30;1.00
50969;DHT22;36982;51.474;7.228;2023-09-18T14:00:02;24.30;99.90
50969;DHT22;36982;51.474;7.228;2023-09-18T14:02:32;24.40;99.90
50969;DHT22;36982;51.474;7.228;2023-09-18T14:04:58;24.40;99.90
50969;DHT22;36982;51.474;7.228;2023-09-18T14:07:23;24.30;99.90
50969;DHT22;36982;51.474;7.228;2023-09-18T14:09:49;24.20;99.90
50969;DHT22;36982;51.474;7.228;2023-09-18T14:12:15;24.10;99.90
50969;DHT22;36982;51.474;7.228;2023-09-18T14:14:41;23.90;99.90
50969;DHT22;36982;51.474;7.228;2023-09-18T14:17:07;23.80;1.00
50969;DHT22;36982;51.474;7.228;2023-09-18T14:19:34;23.70;1.00
50969;DHT22;36982;51.474;7.228;2023-09-18T14:21:59;23.70;99.90
50969;DHT22;36982;51.474;7.228;2023-09-18T14:24:30;23.80;99.90
50969;DHT22;36982;51.474;7.228;2023-09-18T14:26:55;23.90;99.90
50969;DHT22;36982;51.474;7.228;2023-09-18T14:29:21;23.90;99.90
50969;DHT22;36982;51.474;7.228;2023-09-18T14:31:48;23.90;99.90
50969;DHT22;36982;51.474;7.228;2023-09-18T14:34:14;23.90;99.90
50969;DHT22;36982;51.474;7.228;2023-09-18T14:36:39;23.90;99.90
50969;DHT22;36982;51.474;7.228;2023-09-18T14:39:06;24.00;99.90
50969;DHT22;36982;51.474;7.228;2023-09-18T14:41:36;24.10;99.90
50969;DHT22;36982;51.474;7.228;2023-09-18T14:44:03;24.10;99.90
50969;DHT22;36982;51.474;7.228;2023-09-18T14:46:30;24.20;99.90
50969;DHT22;36982;51.474;7.228;2023-09-18T14:48:59;24.10;99.90
50969;DHT22;36982;51.474;7.228;2023-09-18T14:51:24;24.00;99.90
50969;DHT22;36982;51.474;7.228;2023-09-18T14:53:50;23.90;99.90
50969;DHT22;36982;51.474;7.228;2023-09-18T14:56:16;24.00;99.90
50969;DHT22;36982;51.474;7.228;2023-09-18T14:58:41;24.00;95.80
50969;DHT22;36982;51.474;7.228;2023-09-18T15:01:09;24.00;1.00
50969;DHT22;36982;51.474;7.228;2023-09-18T15:03:35;23.90;99.90
50969;DHT22;36982;51.474;7.228;2023-09-18T15:06:01;23.80;99.90
50969;DHT22;36982;51.474;7.228;2023-09-18T15:08:27;23.80;99.90
50969;DHT22;36982;51.474;7.228;2023-09-18T15:10:53;23.80;99.90
50969;DHT22;36982;51.474;7.228;2023-09-18T15:13:18;23.80;99.90
50969;DHT22;36982;51.474;7.228;2023-09-18T15:15:44;23.80;99.90
50969;DHT22;36982;51.474;7.228;2023-09-18T15:18:11;23.70;99.90
50969;DHT22;36982;51.474;7.228;2023-09-18T15:20:37;23.60;99.90
50969;DHT22;36982;51.474;7.228;2023-09-18T15:23:04;23.60;99.90
50969;DHT22;36982;51.474;7.228;2023-09-18T15:25:32;23.50;99.90
50969;DHT22;36982;51.474;7.228;2023-09-18T15:28:00;23.50;86.70
50969;DHT22;36982;51.474;7.228;2023-09-18T15:30:26;23.50;98.70
50969;DHT22;36982;51.474;7.228;2023-09-18T15:32:54;23.50;89.10
50969;DHT22;36982;51.474;7.228;2023-09-18T15:35:23;23.50;99.90
50969;DHT22;36982;51.474;7.228;2023-09-18T15:37:50;23.50;99.90
50969;DHT22;36982;51.474;7.228;2023-09-18T15:40:16;23.50;77.00
50969;DHT22;36982;51.474;7.228;2023-09-18T15:42:48;23.40;99.90
50969;DHT22;36982;51.474;7.228;2023-09-18T15:45:14;23.40;99.90
50969;DHT22;36982;51.474;7.228;2023-09-18T15:47:41;23.40;99.90
50969;DHT22;36982;51.474;7.228;2023-09-18T15:50:08;23.40;99.90
50969;DHT22;36982;51.474;7.228;2023-09-18T15:52:34;23.40;99.90